sensor_id;sensor_type;location;lat;lon;timestamp;P1;durP1;ratioP1;P2;durP2;ratioP2
10985;SDS011;5546;48.714;8.738;2024-01-15T00:00:42;22.63;;;9.90;;
10985;SDS011;5546;48.714;8.738;2024-01-15T00:03:09;19.43;;;9.10;;
10985;SDS011;5546;48.714;8.738;2024-01-15T00:05:35;18.90;;;9.50;;
10985;SDS011;5546;48.714;8.738;2024-01-15T00:08:01;19.07;;;10.10;;
10985;SDS011;5546;48.714;8.738;2024-01-15T00:10:26;19.73;;;9.53;;
10985;SDS011;5546;48.714;8.738;2024-01-15T00:12:52;17.77;;;8.53;;
10985;SDS011;5546;48.714;8.738;2024-01-15T00:15:18;19.27;;;9.50;;
10985;SDS011;5546;48.714;8.738;2024-01-15T00:17:43;16.80;;;8.70;;
10985;SDS011;5546;48.714;8.738;2024-01-15T00:20:09;21.40;;;9.23;;
10985;SDS011;5546;48.714;8.738;2024-01-15T00:22:35;17.77;;;8.77;;
10985;SDS011;5546;48.714;8.738;2024-01-15T00:25:01;14.33;;;7.63;;
10985;SDS011;5546;48.714;8.738;2024-01-15T00:27:27;17.33;;;8.43;;
10985;SDS011;5546;48.714;8.738;2024-01-15T00:29:53;17.87;;;8.53;;
10985;SDS011;5546;48.714;8.738;2024-01-15T00:32:19;16.73;;;8.20;;
10985;SDS011;5546;48.714;8.738;2024-01-15T00:34:45;14.30;;;7.13;;
10985;SDS011;5546;48.714;8.738;2024-01-15T00:37:11;14.57;;;7.83;;
10985;SDS011;5546;48.714;8.738;2024-01-15T00:39:36;15.83;;;7.70;;
10985;SDS011;5546;48.714;8.738;2024-01-15T00:42:02;16.23;;;7.60;;
10985;SDS011;5546;48.714;8.738;2024-01-15T00:44:28;17.83;;;8.90;;
10985;SDS011;5546;48.714;8.738;2024-01-15T00:46:53;13.10;;;7.17;;
10985;SDS011;5546;48.714;8.738;2024-01-15T00:49:19;15.50;;;7.70;;
10985;SDS011;5546;48.714;8.738;2024-01-15T00:51:44;15.47;;;7.57;;
10985;SDS011;5546;48.714;8.738;2024-01-15T00:54:10;19.87;;;8.93;;
10985;SDS011;5546;48.714;8.738;2024-01-15T00:56:36;18.07;;;8.60;;
10985;SDS011;5546;48.714;8.738;2024-01-15T00:59:02;22.70;;;10.23;;
10985;SDS011;5546;48.714;8.738;2024-01-15T01:01:27;20.40;;;9.20;;
10985;SDS011;5546;48.714;8.738;2024-01-15T01:03:53;16.23;;;8.50;;
10985;SDS011;5546;48.714;8.738;2024-01-15T01:06:18;21.33;;;9.27;;
10985;SDS011;5546;48.714;8.738;2024-01-15T01:08:44;20.37;;;8.97;;
10985;SDS011;5546;48.714;8.738;2024-01-15T01:11:12;17.97;;;8.53;;
10985;SDS011;5546;48.714;8.738;2024-01-15T01:13:38;21.10;;;9.03;;
10985;SDS011;5546;48.714;8.738;2024-01-15T01:16:04;24.47;;;10.50;;
10985;SDS011;5546;48.714;8.738;2024-01-15T01:18:29;19.30;;;8.90;;
10985;SDS011;5546;48.714;8.738;2024-01-15T01:20:55;15.87;;;8.13;;
10985;SDS011;5546;48.714;8.738;2024-01-15T01:23:20;15.10;;;7.90;;
10985;SDS011;5546;48.714;8.738;2024-01-15T01:25:46;15.77;;;7.60;;
10985;SDS011;5546;48.714;8.738;2024-01-15T01:28:11;17.30;;;7.63;;
10985;SDS011;5546;48.714;8.738;2024-01-15T01:30:37;17.97;;;7.77;;
10985;SDS011;5546;48.714;8.738;2024-01-15T01:33:03;17.30;;;8.03;;
10985;SDS011;5546;48.714;8.738;2024-01-15T01:35:28;16.47;;;8.10;;
10985;SDS011;5546;48.714;8.738;2024-01-15T01:37:54;21.03;;;8.90;;
10985;SDS011;5546;48.714;8.738;2024-01-15T01:40:19;17.20;;;8.50;;
10985;SDS011;5546;48.714;8.738;2024-01-15T01:42:45;16.20;;;7.67;;
10985;SDS011;5546;48.714;8.738;2024-01-15T01:45:11;16.70;;;9.10;;
10985;SDS011;5546;48.714;8.738;2024-01-15T01:47:37;22.27;;;9.90;;
10985;SDS011;5546;48.714;8.738;2024-01-15T01:50:03;17.87;;;7.70;;
10985;SDS011;5546;48.714;8.738;2024-01-15T01:52:30;18.00;;;8.50;;
10985;SDS011;5546;48.714;8.738;2024-01-15T01:54:56;19.33;;;9.20;;
10985;SDS011;5546;48.714;8.738;2024-01-15T01:57:23;17.70;;;8.00;;
10985;SDS011;5546;48.714;8.738;2024-01-15T01:59:48;20.77;;;8.10;;
10985;SDS011;5546;48.714;8.738;2024-01-15T02:02:15;17.07;;;8.17;;
10985;SDS011;5546;48.714;8.738;2024-01-15T02:04:41;14.53;;;7.17;;
10985;SDS011;5546;48.714;8.738;2024-01-15T02:07:07;16.83;;;8.07;;
10985;SDS011;5546;48.714;8.738;2024-01-15T02:09:34;16.30;;;7.67;;
10985;SDS011;5546;48.714;8.738;2024-01-15T02:12:00;16.17;;;6.97;;
10985;SDS011;5546;48.714;8.738;2024-01-15T02:14:26;19.80;;;7.37;;
10985;SDS011;5546;48.714;8.738;2024-01-15T02:16:52;18.23;;;7.30;;
10985;SDS011;5546;48.714;8.738;2024-01-15T02:19:17;16.77;;;7.80;;
10985;SDS011;5546;48.714;8.738;2024-01-15T02:21:43;14.33;;;6.70;;
10985;SDS011;5546;48.714;8.738;2024-01-15T02:24:09;15.83;;;7.30;;
10985;SDS011;5546;48.714;8.738;2024-01-15T02:26:35;16.80;;;7.57;;
10985;SDS011;5546;48.714;8.738;2024-01-15T02:29:02;14.10;;;7.10;;
10985;SDS011;5546;48.714;8.738;2024-01-15T02:31:28;13.27;;;7.20;;
10985;SDS011;5546;48.714;8.738;2024-01-15T02:33:54;15.80;;;7.37;;
10985;SDS011;5546;48.714;8.738;2024-01-15T02:36:19;16.10;;;7.83;;
10985;SDS011;5546;48.714;8.738;2024-01-15T02:38:45;13.70;;;7.03;;
10985;SDS011;5546;48.714;8.738;2024-01-15T02:41:10;14.10;;;7.13;;
10985;SDS011;5546;48.714;8.738;2024-01-15T02:43:39;13.47;;;6.53;;
10985;SDS011;5546;48.714;8.738;2024-01-15T02:46:04;15.37;;;6.77;;
10985;SDS011;5546;48.714;8.738;2024-01-15T02:48:30;13.43;;;7.00;;
10985;SDS011;5546;48.714;8.738;2024-01-15T02:50:55;13.07;;;7.03;;
10985;SDS011;5546;48.714;8.738;2024-01-15T02:53:21;15.67;;;7.67;;
10985;SDS011;5546;48.714;8.738;2024-01-15T02:55:46;15.37;;;6.90;;
10985;SDS011;5546;48.714;8.738;2024-01-15T02:58:12;13.73;;;7.00;;
10985;SDS011;5546;48.714;8.738;2024-01-15T03:00:38;16.30;;;7.90;;
10985;SDS011;5546;48.714;8.738;2024-01-15T03:03:03;17.20;;;8.17;;
10985;SDS011;5546;48.714;8.738;2024-01-15T03:05:29;17.80;;;7.90;;
10985;SDS011;5546;48.714;8.738;2024-01-15T03:07:55;15.30;;;7.13;;
10985;SDS011;5546;48.714;8.738;2024-01-15T03:10:20;13.57;;;6.73;;
10985;SDS011;5546;48.714;8.738;2024-01-15T03:12:46;18.30;;;6.60;;
10985;SDS011;5546;48.714;8.738;2024-01-15T03:15:11;15.23;;;6.80;;
10985;SDS011;5546;48.714;8.738;2024-01-15T03:17:37;13.90;;;6.50;;
10985;SDS011;5546;48.714;8.738;2024-01-15T03:20:04;16.47;;;7.47;;
10985;SDS011;5546;48.714;8.738;2024-01-15T03:22:30;16.30;;;6.80;;
10985;SDS011;5546;48.714;8.738;2024-01-15T03:24:55;13.23;;;6.60;;
10985;SDS011;5546;48.714;8.738;2024-01-15T03:27:21;12.40;;;6.67;;
10985;SDS011;5546;48.714;8.738;2024-01-15T03:29:46;15.77;;;7.03;;
10985;SDS011;5546;48.714;8.738;2024-01-15T03:32:12;12.77;;;6.00;;
10985;SDS011;5546;48.714;8.738;2024-01-15T03:34:38;17.93;;;6.90;;
10985;SDS011;5546;48.714;8.738;2024-01-15T03:37:04;14.07;;;6.40;;
10985;SDS011;5546;48.714;8.738;2024-01-15T03:39:29;15.57;;;7.50;;
10985;SDS011;5546;48.714;8.738;2024-01-15T03:41:55;17.17;;;7.40;;
10985;SDS011;5546;48.714;8.738;2024-01-15T03:44:22;16.43;;;8.47;;
10985;SDS011;5546;48.714;8.738;2024-01-15T03:46:47;16.47;;;7.30;;
10985;SDS011;5546;48.714;8.738;2024-01-15T03:49:13;14.40;;;7.77;;
10985;SDS011;5546;48.714;8.738;2024-01-15T03:51:38;15.37;;;7.53;;
10985;SDS011;5546;48.714;8.738;2024-01-15T03:54:04;12.90;;;7.50;;
10985;SDS011;5546;48.714;8.738;2024-01-15T03:56:29;19.00;;;7.97;;
10985;SDS011;5546;48.714;8.738;2024-01-15T03:58:55;16.27;;;7.47;;
10985;SDS011;5546;48.714;8.738;2024-01-15T04:01:20;14.23;;;7.30;;
10985;SDS011;5546;48.714;8.738;2024-01-15T04:03:46;16.30;;;7.63;;
10985;SDS011;5546;48.714;8.738;2024-01-15T04:06:11;16.73;;;8.10;;
10985;SDS011;5546;48.714;8.738;2024-01-15T04:08:37;14.53;;;6.87;;
10985;SDS011;5546;48.714;8.738;2024-01-15T04:11:02;13.77;;;6.27;;
10985;SDS011;5546;48.714;8.738;2024-01-15T04:13:28;12.23;;;6.40;;
10985;SDS011;5546;48.714;8.738;2024-01-15T04:15:57;12.97;;;6.73;;
10985;SDS011;5546;48.714;8.738;2024-01-15T04:18:22;14.93;;;7.47;;
10985;SDS011;5546;48.714;8.738;2024-01-15T04:20:48;14.93;;;6.57;;
10985;SDS011;5546;48.714;8.738;2024-01-15T04:23:13;14.30;;;6.53;;
10985;SDS011;5546;48.714;8.738;2024-01-15T04:25:39;14.63;;;7.30;;
10985;SDS011;5546;48.714;8.738;2024-01-15T04:28:07;17.83;;;7.03;;
10985;SDS011;5546;48.714;8.738;2024-01-15T04:30:33;14.23;;;7.30;;
10985;SDS011;5546;48.714;8.738;2024-01-15T04:32:59;15.27;;;6.57;;
10985;SDS011;5546;48.714;8.738;2024-01-15T04:35:24;14.67;;;6.93;;
10985;SDS011;5546;48.714;8.738;2024-01-15T04:37:50;14.53;;;6.50;;
10985;SDS011;5546;48.714;8.738;2024-01-15T04:40:16;11.63;;;6.33;;
10985;SDS011;5546;48.714;8.738;2024-01-15T04:42:41;13.33;;;7.13;;
10985;SDS011;5546;48.714;8.738;2024-01-15T04:45:07;12.20;;;6.53;;
10985;SDS011;5546;48.714;8.738;2024-01-15T04:47:32;13.30;;;6.73;;
10985;SDS011;5546;48.714;8.738;2024-01-15T04:49:58;12.97;;;6.53;;
10985;SDS011;5546;48.714;8.738;2024-01-15T04:52:23;14.03;;;7.07;;
10985;SDS011;5546;48.714;8.738;2024-01-15T04:54:49;12.87;;;6.67;;
10985;SDS011;5546;48.714;8.738;2024-01-15T04:57:15;12.87;;;6.23;;
10985;SDS011;5546;48.714;8.738;2024-01-15T04:59:40;12.60;;;6.30;;
10985;SDS011;5546;48.714;8.738;2024-01-15T05:02:06;12.47;;;6.17;;
10985;SDS011;5546;48.714;8.738;2024-01-15T05:04:32;10.77;;;5.83;;
10985;SDS011;5546;48.714;8.738;2024-01-15T05:06:58;15.30;;;8.00;;
10985;SDS011;5546;48.714;8.738;2024-01-15T05:09:23;14.47;;;7.33;;
10985;SDS011;5546;48.714;8.738;2024-01-15T05:11:49;10.57;;;6.13;;
10985;SDS011;5546;48.714;8.738;2024-01-15T05:14:14;12.13;;;6.40;;
10985;SDS011;5546;48.714;8.738;2024-01-15T05:16:46;14.57;;;6.77;;
10985;SDS011;5546;48.714;8.738;2024-01-15T05:19:13;13.93;;;7.20;;
10985;SDS011;5546;48.714;8.738;2024-01-15T05:21:38;14.30;;;7.07;;
10985;SDS011;5546;48.714;8.738;2024-01-15T05:24:04;13.17;;;6.97;;
10985;SDS011;5546;48.714;8.738;2024-01-15T05:26:30;15.53;;;7.33;;
10985;SDS011;5546;48.714;8.738;2024-01-15T05:28:55;11.93;;;7.33;;
10985;SDS011;5546;48.714;8.738;2024-01-15T05:31:21;15.23;;;7.20;;
10985;SDS011;5546;48.714;8.738;2024-01-15T05:33:46;14.20;;;7.90;;
10985;SDS011;5546;48.714;8.738;2024-01-15T05:36:12;13.87;;;7.03;;
10985;SDS011;5546;48.714;8.738;2024-01-15T05:38:38;12.77;;;6.90;;
10985;SDS011;5546;48.714;8.738;2024-01-15T05:41:04;16.73;;;8.00;;
10985;SDS011;5546;48.714;8.738;2024-01-15T05:43:30;15.93;;;7.43;;
10985;SDS011;5546;48.714;8.738;2024-01-15T05:45:56;12.90;;;6.53;;
10985;SDS011;5546;48.714;8.738;2024-01-15T05:48:21;13.10;;;6.53;;
10985;SDS011;5546;48.714;8.738;2024-01-15T05:50:47;13.87;;;7.27;;
10985;SDS011;5546;48.714;8.738;2024-01-15T05:53:14;12.20;;;6.97;;
10985;SDS011;5546;48.714;8.738;2024-01-15T05:55:39;13.20;;;7.10;;
10985;SDS011;5546;48.714;8.738;2024-01-15T05:58:05;12.30;;;7.10;;
10985;SDS011;5546;48.714;8.738;2024-01-15T06:00:31;13.20;;;6.70;;
10985;SDS011;5546;48.714;8.738;2024-01-15T06:02:58;12.47;;;6.43;;
10985;SDS011;5546;48.714;8.738;2024-01-15T06:05:23;11.70;;;6.10;;
10985;SDS011;5546;48.714;8.738;2024-01-15T06:07:49;12.30;;;6.20;;
10985;SDS011;5546;48.714;8.738;2024-01-15T06:10:14;12.67;;;6.73;;
10985;SDS011;5546;48.714;8.738;2024-01-15T06:12:40;12.37;;;6.40;;
10985;SDS011;5546;48.714;8.738;2024-01-15T06:15:07;10.93;;;5.77;;
10985;SDS011;5546;48.714;8.738;2024-01-15T06:17:33;12.40;;;6.97;;
10985;SDS011;5546;48.714;8.738;2024-01-15T06:19:59;11.60;;;6.47;;
10985;SDS011;5546;48.714;8.738;2024-01-15T06:22:25;12.00;;;6.90;;
10985;SDS011;5546;48.714;8.738;2024-01-15T06:24:50;13.23;;;6.93;;
10985;SDS011;5546;48.714;8.738;2024-01-15T06:27:16;11.57;;;6.27;;
10985;SDS011;5546;48.714;8.738;2024-01-15T06:29:44;14.37;;;7.70;;
10985;SDS011;5546;48.714;8.738;2024-01-15T06:32:14;12.93;;;6.90;;
10985;SDS011;5546;48.714;8.738;2024-01-15T06:34:39;9.67;;;5.77;;
10985;SDS011;5546;48.714;8.738;2024-01-15T06:37:05;10.60;;;6.13;;
10985;SDS011;5546;48.714;8.738;2024-01-15T06:39:31;9.57;;;5.77;;
10985;SDS011;5546;48.714;8.738;2024-01-15T06:41:57;12.57;;;6.90;;
10985;SDS011;5546;48.714;8.738;2024-01-15T06:44:22;10.73;;;6.53;;
10985;SDS011;5546;48.714;8.738;2024-01-15T06:46:48;10.90;;;6.20;;
10985;SDS011;5546;48.714;8.738;2024-01-15T06:49:14;12.20;;;7.47;;
10985;SDS011;5546;48.714;8.738;2024-01-15T06:51:39;9.97;;;6.17;;
10985;SDS011;5546;48.714;8.738;2024-01-15T06:54:05;16.10;;;7.37;;
10985;SDS011;5546;48.714;8.738;2024-01-15T06:56:31;10.87;;;6.27;;
10985;SDS011;5546;48.714;8.738;2024-01-15T06:58:57;11.33;;;6.70;;
10985;SDS011;5546;48.714;8.738;2024-01-15T07:01:22;14.37;;;7.23;;
10985;SDS011;5546;48.714;8.738;2024-01-15T07:03:48;10.20;;;5.97;;
10985;SDS011;5546;48.714;8.738;2024-01-15T07:06:14;10.50;;;5.63;;
10985;SDS011;5546;48.714;8.738;2024-01-15T07:08:39;13.17;;;6.83;;
10985;SDS011;5546;48.714;8.738;2024-01-15T07:11:05;10.40;;;6.50;;
10985;SDS011;5546;48.714;8.738;2024-01-15T07:13:32;11.80;;;6.13;;
10985;SDS011;5546;48.714;8.738;2024-01-15T07:15:57;9.23;;;5.07;;
10985;SDS011;5546;48.714;8.738;2024-01-15T07:18:23;9.53;;;5.50;;
10985;SDS011;5546;48.714;8.738;2024-01-15T07:20:49;13.17;;;6.90;;
10985;SDS011;5546;48.714;8.738;2024-01-15T07:23:15;13.57;;;7.73;;
10985;SDS011;5546;48.714;8.738;2024-01-15T07:25:42;10.87;;;6.10;;
10985;SDS011;5546;48.714;8.738;2024-01-15T07:28:07;18.37;;;6.73;;
10985;SDS011;5546;48.714;8.738;2024-01-15T07:30:33;11.77;;;5.83;;
10985;SDS011;5546;48.714;8.738;2024-01-15T07:32:58;12.20;;;5.93;;
10985;SDS011;5546;48.714;8.738;2024-01-15T07:35:24;11.20;;;6.60;;
10985;SDS011;5546;48.714;8.738;2024-01-15T07:37:49;11.33;;;6.40;;
10985;SDS011;5546;48.714;8.738;2024-01-15T07:40:15;11.20;;;6.13;;
10985;SDS011;5546;48.714;8.738;2024-01-15T07:42:41;13.70;;;5.83;;
10985;SDS011;5546;48.714;8.738;2024-01-15T07:45:07;14.67;;;7.00;;
10985;SDS011;5546;48.714;8.738;2024-01-15T07:47:33;11.07;;;6.23;;
10985;SDS011;5546;48.714;8.738;2024-01-15T07:49:59;11.03;;;6.47;;
10985;SDS011;5546;48.714;8.738;2024-01-15T07:52:25;13.37;;;5.50;;
10985;SDS011;5546;48.714;8.738;2024-01-15T07:54:50;9.80;;;5.40;;
10985;SDS011;5546;48.714;8.738;2024-01-15T07:57:16;9.10;;;5.90;;
10985;SDS011;5546;48.714;8.738;2024-01-15T07:59:41;10.60;;;5.40;;
10985;SDS011;5546;48.714;8.738;2024-01-15T08:02:07;9.37;;;5.43;;
10985;SDS011;5546;48.714;8.738;2024-01-15T08:04:32;12.23;;;5.80;;
10985;SDS011;5546;48.714;8.738;2024-01-15T08:06:58;9.87;;;5.53;;
10985;SDS011;5546;48.714;8.738;2024-01-15T08:09:23;7.83;;;5.13;;
10985;SDS011;5546;48.714;8.738;2024-01-15T08:11:49;11.40;;;5.60;;
10985;SDS011;5546;48.714;8.738;2024-01-15T08:14:14;9.63;;;5.30;;
10985;SDS011;5546;48.714;8.738;2024-01-15T08:16:40;8.90;;;5.10;;
10985;SDS011;5546;48.714;8.738;2024-01-15T08:19:06;9.93;;;4.97;;
10985;SDS011;5546;48.714;8.738;2024-01-15T08:21:31;7.77;;;4.97;;
10985;SDS011;5546;48.714;8.738;2024-01-15T08:23:58;8.23;;;4.77;;
10985;SDS011;5546;48.714;8.738;2024-01-15T08:26:25;8.37;;;4.80;;
10985;SDS011;5546;48.714;8.738;2024-01-15T08:28:50;8.90;;;5.27;;
10985;SDS011;5546;48.714;8.738;2024-01-15T08:31:16;10.70;;;5.50;;
10985;SDS011;5546;48.714;8.738;2024-01-15T08:33:42;8.40;;;5.07;;
10985;SDS011;5546;48.714;8.738;2024-01-15T08:36:08;7.40;;;4.67;;
10985;SDS011;5546;48.714;8.738;2024-01-15T08:38:34;8.17;;;4.90;;
10985;SDS011;5546;48.714;8.738;2024-01-15T08:41:00;11.03;;;5.53;;
10985;SDS011;5546;48.714;8.738;2024-01-15T08:43:26;7.20;;;4.40;;
10985;SDS011;5546;48.714;8.738;2024-01-15T08:45:52;8.80;;;4.83;;
10985;SDS011;5546;48.714;8.738;2024-01-15T08:48:18;7.40;;;4.67;;
10985;SDS011;5546;48.714;8.738;2024-01-15T08:50:43;7.70;;;4.80;;
10985;SDS011;5546;48.714;8.738;2024-01-15T08:53:12;9.30;;;4.77;;
10985;SDS011;5546;48.714;8.738;2024-01-15T08:55:38;8.87;;;4.90;;
10985;SDS011;5546;48.714;8.738;2024-01-15T08:58:04;8.03;;;4.60;;
10985;SDS011;5546;48.714;8.738;2024-01-15T09:00:29;8.73;;;4.47;;
10985;SDS011;5546;48.714;8.738;2024-01-15T09:02:55;9.03;;;5.00;;
10985;SDS011;5546;48.714;8.738;2024-01-15T09:05:22;8.70;;;5.00;;
10985;SDS011;5546;48.714;8.738;2024-01-15T09:07:47;11.13;;;5.47;;
10985;SDS011;5546;48.714;8.738;2024-01-15T09:10:13;7.67;;;4.37;;
10985;SDS011;5546;48.714;8.738;2024-01-15T09:12:39;7.50;;;5.00;;
10985;SDS011;5546;48.714;8.738;2024-01-15T09:15:05;8.67;;;4.67;;
10985;SDS011;5546;48.714;8.738;2024-01-15T09:17:31;10.50;;;5.00;;
10985;SDS011;5546;48.714;8.738;2024-01-15T09:19:57;9.37;;;5.00;;
10985;SDS011;5546;48.714;8.738;2024-01-15T09:22:23;8.00;;;4.47;;
10985;SDS011;5546;48.714;8.738;2024-01-15T09:24:49;7.53;;;4.50;;
10985;SDS011;5546;48.714;8.738;2024-01-15T09:27:14;9.70;;;4.83;;
10985;SDS011;5546;48.714;8.738;2024-01-15T09:29:40;10.47;;;5.00;;
10985;SDS011;5546;48.714;8.738;2024-01-15T09:32:07;7.20;;;4.23;;
10985;SDS011;5546;48.714;8.738;2024-01-15T09:34:35;8.93;;;4.60;;
10985;SDS011;5546;48.714;8.738;2024-01-15T09:37:01;7.17;;;4.63;;
10985;SDS011;5546;48.714;8.738;2024-01-15T09:39:29;6.77;;;4.00;;
10985;SDS011;5546;48.714;8.738;2024-01-15T09:41:55;8.37;;;4.60;;
10985;SDS011;5546;48.714;8.738;2024-01-15T09:44:22;8.47;;;4.40;;
10985;SDS011;5546;48.714;8.738;2024-01-15T09:46:48;8.47;;;4.83;;
10985;SDS011;5546;48.714;8.738;2024-01-15T09:49:17;8.33;;;4.77;;
10985;SDS011;5546;48.714;8.738;2024-01-15T09:51:43;7.80;;;4.50;;
10985;SDS011;5546;48.714;8.738;2024-01-15T09:54:09;8.37;;;4.80;;
10985;SDS011;5546;48.714;8.738;2024-01-15T09:56:38;8.63;;;5.20;;
10985;SDS011;5546;48.714;8.738;2024-01-15T09:59:03;9.47;;;4.80;;
10985;SDS011;5546;48.714;8.738;2024-01-15T10:01:31;6.30;;;3.37;;
10985;SDS011;5546;48.714;8.738;2024-01-15T10:03:57;6.57;;;3.57;;
10985;SDS011;5546;48.714;8.738;2024-01-15T10:06:23;5.97;;;3.60;;
10985;SDS011;5546;48.714;8.738;2024-01-15T10:08:56;5.37;;;3.33;;
10985;SDS011;5546;48.714;8.738;2024-01-15T10:11:23;5.43;;;3.37;;
10985;SDS011;5546;48.714;8.738;2024-01-15T10:13:49;6.70;;;3.30;;
10985;SDS011;5546;48.714;8.738;2024-01-15T10:16:18;6.03;;;3.07;;
10985;SDS011;5546;48.714;8.738;2024-01-15T10:18:44;5.60;;;3.13;;
10985;SDS011;5546;48.714;8.738;2024-01-15T10:21:10;5.33;;;3.67;;
10985;SDS011;5546;48.714;8.738;2024-01-15T10:23:36;7.00;;;3.80;;
10985;SDS011;5546;48.714;8.738;2024-01-15T10:26:02;6.83;;;3.40;;
10985;SDS011;5546;48.714;8.738;2024-01-15T10:28:28;6.90;;;3.43;;
10985;SDS011;5546;48.714;8.738;2024-01-15T10:30:55;5.10;;;3.70;;
10985;SDS011;5546;48.714;8.738;2024-01-15T10:33:22;7.17;;;3.50;;
10985;SDS011;5546;48.714;8.738;2024-01-15T10:35:54;9.63;;;4.27;;
10985;SDS011;5546;48.714;8.738;2024-01-15T10:38:21;7.33;;;3.93;;
10985;SDS011;5546;48.714;8.738;2024-01-15T10:40:48;6.33;;;3.13;;
10985;SDS011;5546;48.714;8.738;2024-01-15T10:43:17;6.80;;;3.83;;
10985;SDS011;5546;48.714;8.738;2024-01-15T10:45:46;7.53;;;4.20;;
10985;SDS011;5546;48.714;8.738;2024-01-15T10:48:12;7.67;;;4.20;;
10985;SDS011;5546;48.714;8.738;2024-01-15T10:50:38;6.87;;;4.13;;
10985;SDS011;5546;48.714;8.738;2024-01-15T10:53:05;5.80;;;3.80;;
10985;SDS011;5546;48.714;8.738;2024-01-15T10:55:34;7.03;;;3.60;;
10985;SDS011;5546;48.714;8.738;2024-01-15T10:58:02;9.53;;;5.00;;
10985;SDS011;5546;48.714;8.738;2024-01-15T11:00:28;6.63;;;4.20;;
10985;SDS011;5546;48.714;8.738;2024-01-15T11:03:01;6.90;;;4.10;;
10985;SDS011;5546;48.714;8.738;2024-01-15T11:05:28;7.97;;;4.93;;
10985;SDS011;5546;48.714;8.738;2024-01-15T11:07:58;7.60;;;4.53;;
10985;SDS011;5546;48.714;8.738;2024-01-15T11:10:42;9.53;;;4.90;;
10985;SDS011;5546;48.714;8.738;2024-01-15T11:16:07;10.60;;;5.20;;
10985;SDS011;5546;48.714;8.738;2024-01-15T11:18:37;8.73;;;5.10;;
10985;SDS011;5546;48.714;8.738;2024-01-15T11:21:25;8.40;;;4.93;;
10985;SDS011;5546;48.714;8.738;2024-01-15T11:29:04;10.90;;;4.53;;
10985;SDS011;5546;48.714;8.738;2024-01-15T11:34:09;7.97;;;4.53;;
10985;SDS011;5546;48.714;8.738;2024-01-15T11:42:01;8.73;;;4.33;;
10985;SDS011;5546;48.714;8.738;2024-01-15T11:44:28;7.37;;;4.77;;
10985;SDS011;5546;48.714;8.738;2024-01-15T11:46:58;7.87;;;4.60;;
10985;SDS011;5546;48.714;8.738;2024-01-15T11:49:50;6.47;;;3.70;;
10985;SDS011;5546;48.714;8.738;2024-01-15T11:52:21;7.10;;;4.30;;
10985;SDS011;5546;48.714;8.738;2024-01-15T11:55:00;10.63;;;5.23;;
10985;SDS011;5546;48.714;8.738;2024-01-15T11:57:42;10.43;;;4.57;;
10985;SDS011;5546;48.714;8.738;2024-01-15T12:00:17;8.93;;;4.50;;
10985;SDS011;5546;48.714;8.738;2024-01-15T12:02:45;7.37;;;4.20;;
10985;SDS011;5546;48.714;8.738;2024-01-15T12:05:12;7.30;;;4.53;;
10985;SDS011;5546;48.714;8.738;2024-01-15T12:07:39;7.90;;;4.70;;
10985;SDS011;5546;48.714;8.738;2024-01-15T12:10:15;6.97;;;4.10;;
10985;SDS011;5546;48.714;8.738;2024-01-15T12:12:50;8.27;;;4.37;;
10985;SDS011;5546;48.714;8.738;2024-01-15T12:15:38;8.97;;;5.13;;
10985;SDS011;5546;48.714;8.738;2024-01-15T12:18:07;7.53;;;4.57;;
10985;SDS011;5546;48.714;8.738;2024-01-15T12:20:36;8.27;;;4.93;;
10985;SDS011;5546;48.714;8.738;2024-01-15T12:23:03;7.73;;;4.67;;
10985;SDS011;5546;48.714;8.738;2024-01-15T12:25:29;8.47;;;4.80;;
10985;SDS011;5546;48.714;8.738;2024-01-15T12:27:56;7.37;;;4.13;;
10985;SDS011;5546;48.714;8.738;2024-01-15T12:30:22;6.97;;;4.70;;
10985;SDS011;5546;48.714;8.738;2024-01-15T12:32:47;7.67;;;4.17;;
10985;SDS011;5546;48.714;8.738;2024-01-15T12:35:13;7.63;;;4.53;;
10985;SDS011;5546;48.714;8.738;2024-01-15T12:37:40;6.63;;;4.63;;
10985;SDS011;5546;48.714;8.738;2024-01-15T12:40:06;7.83;;;4.30;;
10985;SDS011;5546;48.714;8.738;2024-01-15T12:42:35;8.13;;;4.97;;
10985;SDS011;5546;48.714;8.738;2024-01-15T12:45:01;5.70;;;4.03;;
10985;SDS011;5546;48.714;8.738;2024-01-15T12:47:28;8.50;;;4.40;;
10985;SDS011;5546;48.714;8.738;2024-01-15T12:49:53;8.00;;;4.30;;
10985;SDS011;5546;48.714;8.738;2024-01-15T12:52:20;5.43;;;3.97;;
10985;SDS011;5546;48.714;8.738;2024-01-15T12:54:49;5.47;;;3.83;;
10985;SDS011;5546;48.714;8.738;2024-01-15T12:57:15;9.83;;;3.97;;
10985;SDS011;5546;48.714;8.738;2024-01-15T12:59:41;7.67;;;4.23;;
10985;SDS011;5546;48.714;8.738;2024-01-15T13:02:07;9.27;;;4.37;;
10985;SDS011;5546;48.714;8.738;2024-01-15T13:04:33;7.10;;;4.00;;
10985;SDS011;5546;48.714;8.738;2024-01-15T13:06:58;6.37;;;3.83;;
10985;SDS011;5546;48.714;8.738;2024-01-15T13:09:24;5.63;;;3.00;;
10985;SDS011;5546;48.714;8.738;2024-01-15T13:11:50;8.17;;;4.30;;
10985;SDS011;5546;48.714;8.738;2024-01-15T13:14:17;7.77;;;4.07;;
10985;SDS011;5546;48.714;8.738;2024-01-15T13:16:43;5.47;;;3.63;;
10985;SDS011;5546;48.714;8.738;2024-01-15T13:19:09;6.80;;;3.90;;
10985;SDS011;5546;48.714;8.738;2024-01-15T13:21:36;5.97;;;3.37;;
10985;SDS011;5546;48.714;8.738;2024-01-15T13:24:02;5.50;;;3.43;;
10985;SDS011;5546;48.714;8.738;2024-01-15T13:26:30;5.93;;;4.93;;
10985;SDS011;5546;48.714;8.738;2024-01-15T13:29:05;4.83;;;3.27;;
10985;SDS011;5546;48.714;8.738;2024-01-15T13:31:31;6.10;;;4.40;;
10985;SDS011;5546;48.714;8.738;2024-01-15T13:33:57;6.23;;;3.70;;
10985;SDS011;5546;48.714;8.738;2024-01-15T13:36:23;5.10;;;3.40;;
10985;SDS011;5546;48.714;8.738;2024-01-15T13:38:52;5.07;;;3.30;;
10985;SDS011;5546;48.714;8.738;2024-01-15T13:41:19;4.57;;;2.70;;
10985;SDS011;5546;48.714;8.738;2024-01-15T13:46:14;5.10;;;3.20;;
10985;SDS011;5546;48.714;8.738;2024-01-15T13:48:39;5.67;;;2.87;;
10985;SDS011;5546;48.714;8.738;2024-01-15T13:51:05;4.93;;;3.37;;
10985;SDS011;5546;48.714;8.738;2024-01-15T13:53:31;4.03;;;3.20;;
10985;SDS011;5546;48.714;8.738;2024-01-15T13:55:56;4.50;;;3.07;;
10985;SDS011;5546;48.714;8.738;2024-01-15T13:58:22;4.57;;;3.33;;
10985;SDS011;5546;48.714;8.738;2024-01-15T14:00:48;5.37;;;2.93;;
10985;SDS011;5546;48.714;8.738;2024-01-15T14:03:14;4.40;;;2.90;;
10985;SDS011;5546;48.714;8.738;2024-01-15T14:05:40;5.17;;;2.80;;
10985;SDS011;5546;48.714;8.738;2024-01-15T14:08:05;3.80;;;2.73;;
10985;SDS011;5546;48.714;8.738;2024-01-15T14:10:32;5.07;;;2.83;;
10985;SDS011;5546;48.714;8.738;2024-01-15T14:12:58;4.23;;;3.00;;
10985;SDS011;5546;48.714;8.738;2024-01-15T14:15:23;3.60;;;2.53;;
10985;SDS011;5546;48.714;8.738;2024-01-15T14:17:49;4.23;;;2.70;;
10985;SDS011;5546;48.714;8.738;2024-01-15T14:20:15;4.50;;;2.93;;
10985;SDS011;5546;48.714;8.738;2024-01-15T14:22:45;4.37;;;3.07;;
10985;SDS011;5546;48.714;8.738;2024-01-15T14:25:11;5.03;;;3.33;;
10985;SDS011;5546;48.714;8.738;2024-01-15T14:27:37;6.03;;;3.20;;
10985;SDS011;5546;48.714;8.738;2024-01-15T14:30:03;5.70;;;4.03;;
10985;SDS011;5546;48.714;8.738;2024-01-15T14:32:31;5.37;;;3.70;;
10985;SDS011;5546;48.714;8.738;2024-01-15T14:34:56;8.17;;;4.33;;
10985;SDS011;5546;48.714;8.738;2024-01-15T14:37:22;5.50;;;3.43;;
10985;SDS011;5546;48.714;8.738;2024-01-15T14:39:47;6.63;;;3.47;;
10985;SDS011;5546;48.714;8.738;2024-01-15T14:42:13;4.57;;;3.70;;
10985;SDS011;5546;48.714;8.738;2024-01-15T14:44:38;6.53;;;3.80;;
10985;SDS011;5546;48.714;8.738;2024-01-15T14:47:05;5.47;;;3.13;;
10985;SDS011;5546;48.714;8.738;2024-01-15T14:49:32;6.33;;;4.53;;
10985;SDS011;5546;48.714;8.738;2024-01-15T14:51:58;6.50;;;3.97;;
10985;SDS011;5546;48.714;8.738;2024-01-15T14:54:24;5.80;;;3.90;;
10985;SDS011;5546;48.714;8.738;2024-01-15T14:56:50;8.23;;;4.20;;
10985;SDS011;5546;48.714;8.738;2024-01-15T14:59:16;5.40;;;4.10;;
10985;SDS011;5546;48.714;8.738;2024-01-15T15:01:42;6.30;;;4.63;;
10985;SDS011;5546;48.714;8.738;2024-01-15T15:04:08;6.03;;;4.57;;
10985;SDS011;5546;48.714;8.738;2024-01-15T15:06:35;5.67;;;4.53;;